Terminal Aerodrome Forecast
Issued by NWS Cleveland, OH

Home | Current Version | Previous Version | Text Only | Print | Product List | Glossary On
Versions: 1 2 3 4 5 6 7 8 9 10 11 12 13 14 15 16
105
FTUS41 KCLE 291125
TAFERI
TAF
KERI 291125Z 2912/3012 19015KT P6SM SCT060 BKN150
     FM291400 19015G25KT P6SM VCSH BKN110
     FM291900 22015G22KT P6SM VCTS SCT050 BKN110CB
     FM300200 20012KT P6SM -SHRA VCTS SCT050 BKN090CB=

USA.gov is the U.S. government's official web portal to all federal, state and local government web resources and services.